Montgomery, AL

1:14 PM CDT on May 27, 2015 (GMT -0500)
Forest Hills | | Change Station
CLOSE
Current Station
Personal Weather Station
Location: Montgomery, AL
Elevation: 223 ft
Nearby Weather Stations

Elev 223 ft 32.38 °N, 86.26 °W | Updated 2 seconds ago

Mostly Cloudy
Mostly Cloudy
85.0 °F
Feels Like 92 °F
N
0.0
Wind Variable Wind from SW
Gusts 3.0 mph

Today
High -- | Low -- °F
--% Chance of Precip.
Yesterday
High -- | Low -- °F
Precip. -- in
5:40 AM 7:44 PM
Waxing Gibbous, 69% visible
Pressure 30.17 in
Visibility 10.0 miles
Clouds Scattered Clouds 3400 ft
Mostly Cloudy 6000 ft
Heat Index 92 °F
Dew Point 74 °F
Humidity 69%
Rainfall 0.00 in
Snow Depth Not available.
UV 7 out of 12
Pollen .70 out of 12
Air Quality Not available.
Flu Activity Sporadic
METAR KMXF 271758Z AUTO VRB03KT 10SM SCT034 BKN060 29/21 A3016 RMK AO2 SLP214 T02920214 10299 20206 58014

More Conditions Fewer Conditions

Pressure 30.17 in
Visibility 10.0 miles
Clouds Scattered Clouds 3400 ft
Mostly Cloudy 6000 ft
Heat Index 92 °F
Dew Point 74 °F
Humidity 69%
Rainfall 0.00 in
Snow Depth Not available.
UV 7 out of 12
Pollen .70 out of 12
Air Quality Not available.
Flu Activity Sporadic
METAR KMXF 271758Z AUTO VRB03KT 10SM SCT034 BKN060 29/21 A3016 RMK AO2 SLP214 T02920214 10299 20206 58014

More Conditions Fewer Conditions

10-Day Weather Forecast

Almanac

Astronomy

May. 27, 2015 Rise Set
Actual Time
Civil Twilight
Nautical Twilight
Astronomical Twilight
Moon
Length of Visible Light
Length of Day
Tomorrow will be .
, % of the Moon is Illuminated

Today's Extremes

State Highs State Lows

Community

WunderPhotos

Upload Photos

1,824,744 photos uploaded!

WunderBlogs® & News

Nearby

Air Quality

  Air Quality AQ Index Pollutant
Not available.

Snow Depth

Station Depth Elevation

Earthquake Activity

City Distance Mag. Time & Date
Minimum magnitude displayed is 2.5.

Coastal Water Temperatures

Place Temperature

Stations

Nearby Weather Stations

Station Location Temp. Windchill Dew Point Humidity Wind Precip. Elev Updated Type